AirNav   Air Wisconsin Up To $57,000 Bonus
 
 380 users online  

2MU1 St Louis Children's Hospital Heliport
Saint Louis, Missouri, USA

GOING TO SAINT LOUIS?


FAA INFORMATION EFFECTIVE 22 APRIL 2021

Location

FAA Identifier: 2MU1
Lat/Long: 38-38-16.7000N 090-15-53.6500W
38-38.278333N 090-15.894167W
38.6379722,-90.2649028
(estimated)
Elevation: 610 ft. / 186 m (estimated)
Variation: 01E (1995)
Time zone: UTC -5 (UTC -6 during Standard Time)
Zip code: 63110

Heliport Operations

Heliport use: Private use, MEDICAL USE.
Activation date: 07/1997
Control tower: no
ARTCC: KANSAS CITY CENTER
FSS: SAINT LOUIS FLIGHT SERVICE STATION
Attendance: ON CALL
Wind indicator: yes
Segmented circle: no
Lights: FOR PERIMETER LGTS CALL 417-434-6000.

Heliport Communications

WX ASOS at CPS (7 nm SE): PHONE 618-332-0001
WX ASOS at STL (8 nm NW): 125.025 (314-890-4790)
WX ASOS at SUS (18 nm W): 134.8 (314-890-7255)
WX AWOS-3 at ALN (18 nm NE): 128.0 (618-259-7231)
WX ASOS at SET (19 nm NW): 118.075 (636-250-4590)

Nearby radio navigation aids

VOR radial/distance  VOR name  Freq  Var
STLr142/16.8ST LOUIS VORTAC117.4001E
TOYr245/17.3TROY VORTAC116.0004E
FTZr091/33.3FORISTELL VORTAC110.8005E

 
NDB name  Hdg/Dist  Freq  Var  ID
ACORE306/12.035000ECP -.-. .--.
EAVES101/13.422701WFZ ..-. --..
CIVIC MEMORIAL214/18.126301WCVM -.-. ...- --

Heliport Services

Runway Information

Helipad H1

Dimensions: 60 x 60 ft. / 18 x 18 m
Surface: concrete
Runway edge lights: PERI
Latitude: 38-38.278333N
Longitude: 090-15.894167W
Elevation: 610.0 ft.
Traffic pattern: leftleft

Heliport Ownership and Management from official FAA records

Ownership: Privately-owned
Owner: SAINT LOUIS CHILDREN'S HOSP.
1 CHILDREN'S PLACE
SAINT LOUIS, MO 63110-1077
Phone 314-454-6000
Manager: FACILITIES MANAGER
1 CHILDREN'S PLACE
SAINT LOUIS, MO 63110-1077
Phone 314-454-6000

Additional Remarks

ROOFTOP.
OWNER DESIRES HELIPORT NOT BE CHARTED.
FOR CD CTC ST LOUIS APCH AT 314-890-1018.

Instrument Procedures

There are no published instrument procedures at 2MU1.

Some nearby airports with instrument procedures:

KCPS - St Louis Downtown Airport (7 nm SE)
KSTL - St Louis Lambert International Airport (8 nm NW)
1H0 - Creve Coeur Airport (13 nm NW)
KSUS - Spirit of St Louis Airport (18 nm W)
KALN - St Louis Regional Airport (18 nm NE)
KSET - St Charles County Smartt Airport (19 nm NW)
 
Loc | Ops | Rwys | IFR | FBO | Links
Com | Nav | Svcs | Stats | Notes
Area around 2MU1 (St Louis Children's Hospital Heliport)
 
Road maps at: MapQuest Bing Google
 
Aerial photo
No photo
 
Sectional chart

 
Airport distance calculator
Flying to St Louis Children's Hospital Heliport? Find the distance to fly.

From to 2MU1

Sunrise and sunset
Times for 09-May-2021
 Local
(UTC-5)
 Zulu
(UTC)
Morning civil twilight05:2610:26
Sunrise05:5610:56
Sunset19:5900:59
Evening civil twilight20:2901:29

Current date and time
Zulu (UTC)  09-May-2021 08:10:57
Local (UTC-5)  09-May-2021 03:10:57
 
METAR
KCPS 
7nm SE 
090753Z AUTO 14006KT 10SM FEW100 13/10 A2960 RMK AO2 SLP022 T01280100
KSTL 
8nm NW 
090751Z 11012KT 10SM BKN055 OVC100 13/09 A2960 RMK AO2 SLP022 T01330089
KSUS 
18nm W 
090754Z AUTO 10006KT 10SM SCT055 13/09 A2958 RMK AO2 SLP015 T01280089
KALN 
18nm NE 
090755Z AUTO 10009KT 10SM OVC050 12/10 A2962 RMK AO2 LTG DSNT N AND NE T01150097
KSET 
19nm NW 
090754Z AUTO 10011KT 10SM BKN055 13/08 A2959 RMK AO2 SLP020 T01280083
TAF
KCPS 
7nm SE 
090520Z 0906/1006 10010G20KT P6SM VCSH BKN045 BKN150 FM091000 17012G20KT 4SM SHRA BR VCTS OVC015CB TEMPO 0910/0912 2SM TSRA FM091300 26010G18KT 6SM -SHRA BR OVC007 FM091700 33013G21KT P6SM OVC007 FM092300 35012G20KT P6SM BKN015
KSTL 
8nm NW 
090520Z 0906/1012 12012G22KT P6SM VCSH BKN045 BKN150 FM091000 17012G20KT 4SM SHRA BR VCTS OVC015CB TEMPO 0910/0912 2SM +TSRA FM091300 26010G18KT 6SM -SHRA BR OVC007 FM091700 33013G21KT P6SM OVC007 FM092300 35012G20KT P6SM BKN015 FM100400 36008KT P6SM BKN100
KSUS 
18nm W 
090520Z 0906/1006 10012KT P6SM VCSH BKN045 BKN150 FM091000 17012G20KT 4SM SHRA BR VCTS OVC015CB TEMPO 0910/0912 2SM TSRA FM091300 26010G18KT 6SM -SHRA BR OVC007 FM091700 33013G21KT P6SM OVC007 FM092300 35012G20KT P6SM BKN015
NOTAMs
Click for the latest NOTAMs
NOTAMs are issued by the DoD/FAA and will open in a separate window not controlled by AirNav.

 

 
 

Would you like to see your business listed on this page?

 If your business provides an interesting product or service to pilots, flight crews, aircraft, or users of the St Louis Children's Hospital Heliport, you should consider listing it here.  To start the listing process, click on the button below
 
Add a business
 

Other Pages about St Louis Children's Hospital Heliport

Update a link
 
Copyright © AirNav, LLC. All rights reserved. Privacy Policy  Contact